sensor_id;sensor_type;location;lat;lon;timestamp;P1;durP1;ratioP1;P2;durP2;ratioP2
41687;SDS011;27371;42.686;23.362;2023-10-19T00:05:35;11.32;;;8.50;;
41687;SDS011;27371;42.686;23.362;2023-10-19T00:08:01;9.10;;;8.15;;
41687;SDS011;27371;42.686;23.362;2023-10-19T00:10:39;9.30;;;8.13;;
41687;SDS011;27371;42.686;23.362;2023-10-19T00:13:09;10.52;;;8.52;;
41687;SDS011;27371;42.686;23.362;2023-10-19T00:15:39;10.02;;;8.38;;
41687;SDS011;27371;42.686;23.362;2023-10-19T00:18:19;11.10;;;8.75;;
41687;SDS011;27371;42.686;23.362;2023-10-19T00:20:48;9.85;;;8.18;;
41687;SDS011;27371;42.686;23.362;2023-10-19T00:23:22;11.70;;;9.00;;
41687;SDS011;27371;42.686;23.362;2023-10-19T00:25:56;9.40;;;8.40;;
41687;SDS011;27371;42.686;23.362;2023-10-19T00:28:22;11.65;;;9.13;;
41687;SDS011;27371;42.686;23.362;2023-10-19T00:30:50;12.40;;;9.25;;
41687;SDS011;27371;42.686;23.362;2023-10-19T00:33:18;13.10;;;9.00;;
41687;SDS011;27371;42.686;23.362;2023-10-19T00:35:46;10.45;;;8.65;;
41687;SDS011;27371;42.686;23.362;2023-10-19T00:38:15;10.45;;;8.95;;
41687;SDS011;27371;42.686;23.362;2023-10-19T00:41:08;9.60;;;8.27;;
41687;SDS011;27371;42.686;23.362;2023-10-19T00:43:34;13.48;;;9.38;;
41687;SDS011;27371;42.686;23.362;2023-10-19T00:46:11;10.13;;;8.65;;
41687;SDS011;27371;42.686;23.362;2023-10-19T00:48:47;9.85;;;8.73;;
41687;SDS011;27371;42.686;23.362;2023-10-19T00:51:16;10.40;;;8.57;;
41687;SDS011;27371;42.686;23.362;2023-10-19T00:54:00;14.18;;;8.95;;
41687;SDS011;27371;42.686;23.362;2023-10-19T00:56:33;10.70;;;8.55;;
41687;SDS011;27371;42.686;23.362;2023-10-19T00:58:58;9.98;;;8.73;;
41687;SDS011;27371;42.686;23.362;2023-10-19T01:01:32;15.82;;;9.55;;
41687;SDS011;27371;42.686;23.362;2023-10-19T01:04:02;10.23;;;8.52;;
41687;SDS011;27371;42.686;23.362;2023-10-19T01:06:29;9.95;;;8.95;;
41687;SDS011;27371;42.686;23.362;2023-10-19T01:08:57;15.15;;;9.85;;
41687;SDS011;27371;42.686;23.362;2023-10-19T01:11:22;9.93;;;8.77;;
41687;SDS011;27371;42.686;23.362;2023-10-19T01:13:53;13.88;;;9.02;;
41687;SDS011;27371;42.686;23.362;2023-10-19T01:16:19;12.38;;;9.32;;
41687;SDS011;27371;42.686;23.362;2023-10-19T01:18:48;11.60;;;8.55;;
41687;SDS011;27371;42.686;23.362;2023-10-19T01:21:23;12.52;;;8.63;;
41687;SDS011;27371;42.686;23.362;2023-10-19T01:24:00;15.50;;;9.88;;
41687;SDS011;27371;42.686;23.362;2023-10-19T01:26:26;15.43;;;11.10;;
41687;SDS011;27371;42.686;23.362;2023-10-19T01:28:52;10.90;;;9.57;;
41687;SDS011;27371;42.686;23.362;2023-10-19T01:31:26;11.43;;;9.80;;
41687;SDS011;27371;42.686;23.362;2023-10-19T01:33:55;12.45;;;8.82;;
41687;SDS011;27371;42.686;23.362;2023-10-19T01:36:34;10.75;;;9.25;;
41687;SDS011;27371;42.686;23.362;2023-10-19T01:39:09;10.77;;;8.77;;
41687;SDS011;27371;42.686;23.362;2023-10-19T01:41:36;10.38;;;8.75;;
41687;SDS011;27371;42.686;23.362;2023-10-19T01:44:02;11.52;;;8.55;;
41687;SDS011;27371;42.686;23.362;2023-10-19T01:46:31;12.25;;;9.30;;
41687;SDS011;27371;42.686;23.362;2023-10-19T01:49:02;8.95;;;8.05;;
41687;SDS011;27371;42.686;23.362;2023-10-19T01:51:29;12.95;;;9.30;;
41687;SDS011;27371;42.686;23.362;2023-10-19T01:53:58;9.95;;;8.73;;
41687;SDS011;27371;42.686;23.362;2023-10-19T01:56:25;10.73;;;8.77;;
41687;SDS011;27371;42.686;23.362;2023-10-19T01:58:52;10.80;;;8.68;;
41687;SDS011;27371;42.686;23.362;2023-10-19T02:01:19;10.50;;;8.35;;
41687;SDS011;27371;42.686;23.362;2023-10-19T02:03:46;9.93;;;8.93;;
41687;SDS011;27371;42.686;23.362;2023-10-19T02:06:18;10.15;;;8.77;;
41687;SDS011;27371;42.686;23.362;2023-10-19T02:11:43;10.07;;;8.50;;
41687;SDS011;27371;42.686;23.362;2023-10-19T02:14:13;10.82;;;8.60;;
41687;SDS011;27371;42.686;23.362;2023-10-19T02:16:42;10.07;;;8.57;;
41687;SDS011;27371;42.686;23.362;2023-10-19T02:19:09;13.05;;;10.38;;
41687;SDS011;27371;42.686;23.362;2023-10-19T02:21:35;12.43;;;10.05;;
41687;SDS011;27371;42.686;23.362;2023-10-19T02:24:06;14.70;;;10.38;;
41687;SDS011;27371;42.686;23.362;2023-10-19T02:26:32;13.00;;;10.43;;
41687;SDS011;27371;42.686;23.362;2023-10-19T02:28:59;13.25;;;10.35;;
41687;SDS011;27371;42.686;23.362;2023-10-19T02:31:24;12.75;;;10.55;;
41687;SDS011;27371;42.686;23.362;2023-10-19T02:33:52;12.90;;;9.93;;
41687;SDS011;27371;42.686;23.362;2023-10-19T02:36:29;12.40;;;10.38;;
41687;SDS011;27371;42.686;23.362;2023-10-19T02:39:03;13.38;;;10.75;;
41687;SDS011;27371;42.686;23.362;2023-10-19T02:41:33;13.02;;;10.70;;
41687;SDS011;27371;42.686;23.362;2023-10-19T02:44:10;12.52;;;10.32;;
41687;SDS011;27371;42.686;23.362;2023-10-19T02:46:42;13.57;;;10.55;;
41687;SDS011;27371;42.686;23.362;2023-10-19T02:49:13;12.75;;;10.13;;
41687;SDS011;27371;42.686;23.362;2023-10-19T02:51:43;11.85;;;10.27;;
41687;SDS011;27371;42.686;23.362;2023-10-19T02:54:10;13.95;;;9.35;;
41687;SDS011;27371;42.686;23.362;2023-10-19T02:56:43;12.90;;;9.73;;
41687;SDS011;27371;42.686;23.362;2023-10-19T02:59:12;14.60;;;9.52;;
41687;SDS011;27371;42.686;23.362;2023-10-19T03:01:40;14.00;;;10.50;;
41687;SDS011;27371;42.686;23.362;2023-10-19T03:04:09;13.13;;;10.27;;
41687;SDS011;27371;42.686;23.362;2023-10-19T03:06:37;11.40;;;9.75;;
41687;SDS011;27371;42.686;23.362;2023-10-19T03:09:05;18.08;;;10.00;;
41687;SDS011;27371;42.686;23.362;2023-10-19T03:11:48;12.75;;;9.60;;
41687;SDS011;27371;42.686;23.362;2023-10-19T03:14:18;12.90;;;9.40;;
41687;SDS011;27371;42.686;23.362;2023-10-19T03:16:44;13.15;;;9.93;;
41687;SDS011;27371;42.686;23.362;2023-10-19T03:19:10;12.02;;;10.20;;
41687;SDS011;27371;42.686;23.362;2023-10-19T03:21:38;12.65;;;9.98;;
41687;SDS011;27371;42.686;23.362;2023-10-19T03:24:13;12.15;;;9.20;;
41687;SDS011;27371;42.686;23.362;2023-10-19T03:27:00;12.38;;;9.77;;
41687;SDS011;27371;42.686;23.362;2023-10-19T03:29:27;11.45;;;9.73;;
41687;SDS011;27371;42.686;23.362;2023-10-19T03:32:03;12.32;;;10.02;;
41687;SDS011;27371;42.686;23.362;2023-10-19T03:34:30;13.68;;;9.45;;
41687;SDS011;27371;42.686;23.362;2023-10-19T03:36:57;13.85;;;9.88;;
41687;SDS011;27371;42.686;23.362;2023-10-19T03:39:30;12.48;;;8.90;;
41687;SDS011;27371;42.686;23.362;2023-10-19T03:41:58;13.20;;;9.70;;
41687;SDS011;27371;42.686;23.362;2023-10-19T03:44:24;11.75;;;9.90;;
41687;SDS011;27371;42.686;23.362;2023-10-19T03:46:50;12.35;;;9.73;;
41687;SDS011;27371;42.686;23.362;2023-10-19T03:49:24;13.32;;;10.40;;
41687;SDS011;27371;42.686;23.362;2023-10-19T03:51:55;13.57;;;11.02;;
41687;SDS011;27371;42.686;23.362;2023-10-19T03:54:26;16.08;;;11.25;;
41687;SDS011;27371;42.686;23.362;2023-10-19T03:56:55;15.02;;;10.43;;
41687;SDS011;27371;42.686;23.362;2023-10-19T03:59:25;12.65;;;10.05;;
41687;SDS011;27371;42.686;23.362;2023-10-19T04:01:58;12.85;;;11.07;;
41687;SDS011;27371;42.686;23.362;2023-10-19T04:04:25;14.32;;;10.65;;
41687;SDS011;27371;42.686;23.362;2023-10-19T04:06:51;13.30;;;10.45;;
41687;SDS011;27371;42.686;23.362;2023-10-19T04:09:23;14.98;;;10.70;;
41687;SDS011;27371;42.686;23.362;2023-10-19T04:11:54;14.27;;;11.50;;
41687;SDS011;27371;42.686;23.362;2023-10-19T04:14:22;16.27;;;11.02;;
41687;SDS011;27371;42.686;23.362;2023-10-19T04:16:48;13.05;;;10.32;;
41687;SDS011;27371;42.686;23.362;2023-10-19T04:19:14;12.15;;;10.13;;
41687;SDS011;27371;42.686;23.362;2023-10-19T04:21:41;15.70;;;11.52;;
41687;SDS011;27371;42.686;23.362;2023-10-19T04:24:12;15.45;;;11.38;;
41687;SDS011;27371;42.686;23.362;2023-10-19T04:26:38;15.50;;;11.75;;
41687;SDS011;27371;42.686;23.362;2023-10-19T04:29:05;16.35;;;13.13;;
41687;SDS011;27371;42.686;23.362;2023-10-19T04:31:42;16.83;;;13.82;;
41687;SDS011;27371;42.686;23.362;2023-10-19T04:34:17;17.55;;;13.20;;
41687;SDS011;27371;42.686;23.362;2023-10-19T04:36:50;17.20;;;13.88;;
41687;SDS011;27371;42.686;23.362;2023-10-19T04:39:16;16.90;;;13.00;;
41687;SDS011;27371;42.686;23.362;2023-10-19T04:41:44;15.88;;;13.95;;
41687;SDS011;27371;42.686;23.362;2023-10-19T04:44:11;16.58;;;14.50;;
41687;SDS011;27371;42.686;23.362;2023-10-19T04:46:36;17.58;;;14.93;;
41687;SDS011;27371;42.686;23.362;2023-10-19T04:49:02;20.80;;;14.98;;
41687;SDS011;27371;42.686;23.362;2023-10-19T04:51:31;16.35;;;13.85;;
41687;SDS011;27371;42.686;23.362;2023-10-19T04:53:57;17.75;;;14.43;;
41687;SDS011;27371;42.686;23.362;2023-10-19T04:56:22;18.92;;;13.48;;
41687;SDS011;27371;42.686;23.362;2023-10-19T04:58:48;18.73;;;14.70;;
41687;SDS011;27371;42.686;23.362;2023-10-19T05:01:14;18.20;;;14.82;;
41687;SDS011;27371;42.686;23.362;2023-10-19T05:03:40;15.68;;;13.65;;
41687;SDS011;27371;42.686;23.362;2023-10-19T05:06:08;19.98;;;14.10;;
41687;SDS011;27371;42.686;23.362;2023-10-19T05:08:37;16.35;;;14.55;;
41687;SDS011;27371;42.686;23.362;2023-10-19T05:11:03;19.15;;;15.18;;
41687;SDS011;27371;42.686;23.362;2023-10-19T05:13:29;18.88;;;14.82;;
41687;SDS011;27371;42.686;23.362;2023-10-19T05:15:55;16.60;;;13.80;;
41687;SDS011;27371;42.686;23.362;2023-10-19T05:18:21;23.65;;;15.25;;
41687;SDS011;27371;42.686;23.362;2023-10-19T05:20:48;19.88;;;13.93;;
41687;SDS011;27371;42.686;23.362;2023-10-19T05:23:15;17.77;;;12.40;;
41687;SDS011;27371;42.686;23.362;2023-10-19T05:25:40;16.25;;;13.57;;
41687;SDS011;27371;42.686;23.362;2023-10-19T05:28:06;16.05;;;12.75;;
41687;SDS011;27371;42.686;23.362;2023-10-19T05:30:32;19.88;;;11.50;;
41687;SDS011;27371;42.686;23.362;2023-10-19T05:32:59;17.52;;;12.65;;
41687;SDS011;27371;42.686;23.362;2023-10-19T05:35:28;18.67;;;12.00;;
41687;SDS011;27371;42.686;23.362;2023-10-19T05:37:54;14.88;;;10.73;;
41687;SDS011;27371;42.686;23.362;2023-10-19T05:40:22;15.80;;;11.77;;
41687;SDS011;27371;42.686;23.362;2023-10-19T05:42:49;27.55;;;13.30;;
41687;SDS011;27371;42.686;23.362;2023-10-19T05:45:14;15.45;;;11.18;;
41687;SDS011;27371;42.686;23.362;2023-10-19T05:47:43;17.23;;;12.00;;
41687;SDS011;27371;42.686;23.362;2023-10-19T05:50:09;17.17;;;11.70;;
41687;SDS011;27371;42.686;23.362;2023-10-19T05:52:39;19.33;;;12.32;;
41687;SDS011;27371;42.686;23.362;2023-10-19T05:55:09;18.25;;;11.35;;
41687;SDS011;27371;42.686;23.362;2023-10-19T05:57:38;18.58;;;11.73;;
41687;SDS011;27371;42.686;23.362;2023-10-19T06:00:08;21.08;;;13.43;;
41687;SDS011;27371;42.686;23.362;2023-10-19T06:02:42;20.80;;;15.55;;
41687;SDS011;27371;42.686;23.362;2023-10-19T06:05:14;19.70;;;14.93;;
41687;SDS011;27371;42.686;23.362;2023-10-19T06:07:41;23.85;;;16.10;;
41687;SDS011;27371;42.686;23.362;2023-10-19T06:10:07;22.98;;;14.63;;
41687;SDS011;27371;42.686;23.362;2023-10-19T06:12:40;23.25;;;14.18;;
41687;SDS011;27371;42.686;23.362;2023-10-19T06:15:10;19.90;;;13.80;;
41687;SDS011;27371;42.686;23.362;2023-10-19T06:17:37;19.52;;;13.68;;
41687;SDS011;27371;42.686;23.362;2023-10-19T06:20:04;23.67;;;13.98;;
41687;SDS011;27371;42.686;23.362;2023-10-19T06:22:34;20.80;;;13.93;;
41687;SDS011;27371;42.686;23.362;2023-10-19T06:25:01;21.70;;;13.93;;
41687;SDS011;27371;42.686;23.362;2023-10-19T06:27:29;21.80;;;12.63;;
41687;SDS011;27371;42.686;23.362;2023-10-19T06:29:56;15.90;;;11.68;;
41687;SDS011;27371;42.686;23.362;2023-10-19T06:32:22;20.70;;;12.18;;
41687;SDS011;27371;42.686;23.362;2023-10-19T06:34:47;17.35;;;12.65;;
41687;SDS011;27371;42.686;23.362;2023-10-19T06:37:13;18.10;;;11.73;;
41687;SDS011;27371;42.686;23.362;2023-10-19T06:39:38;19.02;;;12.52;;
41687;SDS011;27371;42.686;23.362;2023-10-19T06:42:06;15.30;;;11.52;;
41687;SDS011;27371;42.686;23.362;2023-10-19T06:44:38;16.55;;;13.10;;
41687;SDS011;27371;42.686;23.362;2023-10-19T06:47:03;20.38;;;12.05;;
41687;SDS011;27371;42.686;23.362;2023-10-19T06:49:29;17.55;;;11.15;;
41687;SDS011;27371;42.686;23.362;2023-10-19T06:51:54;14.55;;;10.05;;
41687;SDS011;27371;42.686;23.362;2023-10-19T06:54:21;13.65;;;9.35;;
41687;SDS011;27371;42.686;23.362;2023-10-19T06:56:47;12.02;;;8.32;;
41687;SDS011;27371;42.686;23.362;2023-10-19T06:59:12;12.18;;;8.65;;
41687;SDS011;27371;42.686;23.362;2023-10-19T07:01:38;10.50;;;7.78;;
41687;SDS011;27371;42.686;23.362;2023-10-19T07:04:03;9.80;;;7.88;;
41687;SDS011;27371;42.686;23.362;2023-10-19T07:06:29;14.95;;;9.18;;
41687;SDS011;27371;42.686;23.362;2023-10-19T07:08:55;12.18;;;8.30;;
41687;SDS011;27371;42.686;23.362;2023-10-19T07:11:21;12.10;;;9.05;;
41687;SDS011;27371;42.686;23.362;2023-10-19T07:13:49;15.60;;;10.55;;
41687;SDS011;27371;42.686;23.362;2023-10-19T07:16:14;18.38;;;11.85;;
41687;SDS011;27371;42.686;23.362;2023-10-19T07:18:41;14.68;;;11.05;;
41687;SDS011;27371;42.686;23.362;2023-10-19T07:21:06;12.95;;;9.82;;
41687;SDS011;27371;42.686;23.362;2023-10-19T07:23:34;14.75;;;10.52;;
41687;SDS011;27371;42.686;23.362;2023-10-19T07:26:03;14.25;;;11.32;;
41687;SDS011;27371;42.686;23.362;2023-10-19T07:28:29;14.32;;;11.55;;
41687;SDS011;27371;42.686;23.362;2023-10-19T07:30:56;15.45;;;11.77;;
41687;SDS011;27371;42.686;23.362;2023-10-19T07:33:22;20.13;;;11.77;;
41687;SDS011;27371;42.686;23.362;2023-10-19T07:35:49;13.27;;;10.77;;
41687;SDS011;27371;42.686;23.362;2023-10-19T07:38:21;16.35;;;11.48;;
41687;SDS011;27371;42.686;23.362;2023-10-19T07:40:47;17.70;;;11.93;;
41687;SDS011;27371;42.686;23.362;2023-10-19T07:43:13;14.43;;;10.20;;
41687;SDS011;27371;42.686;23.362;2023-10-19T07:45:38;13.15;;;9.35;;
41687;SDS011;27371;42.686;23.362;2023-10-19T07:48:04;14.45;;;9.73;;
41687;SDS011;27371;42.686;23.362;2023-10-19T07:50:36;11.93;;;9.80;;
41687;SDS011;27371;42.686;23.362;2023-10-19T07:53:05;14.88;;;10.00;;
41687;SDS011;27371;42.686;23.362;2023-10-19T07:55:31;13.80;;;10.27;;
41687;SDS011;27371;42.686;23.362;2023-10-19T07:57:57;13.50;;;10.43;;
41687;SDS011;27371;42.686;23.362;2023-10-19T08:00:25;14.63;;;10.20;;
41687;SDS011;27371;42.686;23.362;2023-10-19T08:02:52;11.63;;;9.90;;
41687;SDS011;27371;42.686;23.362;2023-10-19T08:05:19;10.45;;;8.85;;
41687;SDS011;27371;42.686;23.362;2023-10-19T08:07:45;11.88;;;9.45;;
41687;SDS011;27371;42.686;23.362;2023-10-19T08:10:18;13.23;;;9.40;;
41687;SDS011;27371;42.686;23.362;2023-10-19T08:12:45;11.57;;;9.05;;
41687;SDS011;27371;42.686;23.362;2023-10-19T08:15:12;15.85;;;10.18;;
41687;SDS011;27371;42.686;23.362;2023-10-19T08:17:39;12.10;;;8.63;;
41687;SDS011;27371;42.686;23.362;2023-10-19T08:20:05;10.68;;;8.85;;
41687;SDS011;27371;42.686;23.362;2023-10-19T08:22:34;11.35;;;9.38;;
41687;SDS011;27371;42.686;23.362;2023-10-19T08:25:02;9.75;;;8.75;;
41687;SDS011;27371;42.686;23.362;2023-10-19T08:27:29;7.55;;;6.50;;
41687;SDS011;27371;42.686;23.362;2023-10-19T08:29:55;9.35;;;6.57;;
41687;SDS011;27371;42.686;23.362;2023-10-19T08:32:20;7.35;;;6.60;;
41687;SDS011;27371;42.686;23.362;2023-10-19T08:34:46;10.00;;;7.05;;
41687;SDS011;27371;42.686;23.362;2023-10-19T08:37:11;9.23;;;8.32;;
41687;SDS011;27371;42.686;23.362;2023-10-19T08:39:38;12.57;;;8.25;;
41687;SDS011;27371;42.686;23.362;2023-10-19T08:42:05;9.40;;;7.32;;
41687;SDS011;27371;42.686;23.362;2023-10-19T08:44:34;8.90;;;8.00;;
41687;SDS011;27371;42.686;23.362;2023-10-19T08:47:00;9.02;;;7.88;;
41687;SDS011;27371;42.686;23.362;2023-10-19T08:49:26;8.98;;;8.07;;
41687;SDS011;27371;42.686;23.362;2023-10-19T08:51:52;12.15;;;8.18;;
41687;SDS011;27371;42.686;23.362;2023-10-19T08:54:19;11.85;;;8.05;;
41687;SDS011;27371;42.686;23.362;2023-10-19T08:56:44;10.52;;;9.02;;
41687;SDS011;27371;42.686;23.362;2023-10-19T08:59:10;12.05;;;8.27;;
41687;SDS011;27371;42.686;23.362;2023-10-19T09:01:37;10.20;;;8.88;;
41687;SDS011;27371;42.686;23.362;2023-10-19T09:04:03;10.93;;;8.63;;
41687;SDS011;27371;42.686;23.362;2023-10-19T09:06:36;13.70;;;8.60;;
41687;SDS011;27371;42.686;23.362;2023-10-19T09:09:12;10.27;;;8.10;;
41687;SDS011;27371;42.686;23.362;2023-10-19T09:11:50;9.82;;;8.02;;
41687;SDS011;27371;42.686;23.362;2023-10-19T09:14:31;10.95;;;8.40;;
41687;SDS011;27371;42.686;23.362;2023-10-19T09:17:01;11.73;;;7.80;;
41687;SDS011;27371;42.686;23.362;2023-10-19T09:19:36;11.02;;;8.55;;
41687;SDS011;27371;42.686;23.362;2023-10-19T09:22:04;11.87;;;9.17;;
41687;SDS011;27371;42.686;23.362;2023-10-19T09:24:35;10.98;;;8.40;;
41687;SDS011;27371;42.686;23.362;2023-10-19T09:27:04;12.48;;;8.32;;
41687;SDS011;27371;42.686;23.362;2023-10-19T09:29:30;9.77;;;8.77;;
41687;SDS011;27371;42.686;23.362;2023-10-19T09:31:59;9.63;;;8.63;;
41687;SDS011;27371;42.686;23.362;2023-10-19T09:34:30;9.75;;;7.05;;
41687;SDS011;27371;42.686;23.362;2023-10-19T09:37:02;9.27;;;7.65;;
41687;SDS011;27371;42.686;23.362;2023-10-19T09:39:30;11.73;;;8.60;;
41687;SDS011;27371;42.686;23.362;2023-10-19T09:42:05;8.93;;;6.95;;
41687;SDS011;27371;42.686;23.362;2023-10-19T09:44:45;9.13;;;7.63;;
41687;SDS011;27371;42.686;23.362;2023-10-19T09:47:34;12.02;;;7.07;;
41687;SDS011;27371;42.686;23.362;2023-10-19T09:50:02;8.35;;;7.15;;
41687;SDS011;27371;42.686;23.362;2023-10-19T09:52:30;9.68;;;7.25;;
41687;SDS011;27371;42.686;23.362;2023-10-19T09:55:13;10.80;;;7.32;;
41687;SDS011;27371;42.686;23.362;2023-10-19T10:00:10;10.40;;;7.93;;
41687;SDS011;27371;42.686;23.362;2023-10-19T10:02:43;9.77;;;8.77;;
41687;SDS011;27371;42.686;23.362;2023-10-19T10:10:48;8.48;;;7.57;;
41687;SDS011;27371;42.686;23.362;2023-10-19T10:15:56;8.95;;;7.38;;
41687;SDS011;27371;42.686;23.362;2023-10-19T10:18:26;7.75;;;6.90;;
41687;SDS011;27371;42.686;23.362;2023-10-19T10:23:35;9.50;;;7.45;;
41687;SDS011;27371;42.686;23.362;2023-10-19T10:26:09;8.63;;;6.63;;
41687;SDS011;27371;42.686;23.362;2023-10-19T10:28:35;8.77;;;7.57;;
41687;SDS011;27371;42.686;23.362;2023-10-19T10:36:16;6.35;;;5.70;;
41687;SDS011;27371;42.686;23.362;2023-10-19T10:38:43;9.45;;;5.95;;
41687;SDS011;27371;42.686;23.362;2023-10-19T10:41:09;7.93;;;6.45;;
41687;SDS011;27371;42.686;23.362;2023-10-19T10:43:56;8.70;;;6.82;;
41687;SDS011;27371;42.686;23.362;2023-10-19T10:46:22;8.10;;;6.65;;
41687;SDS011;27371;42.686;23.362;2023-10-19T10:48:49;9.65;;;6.90;;
41687;SDS011;27371;42.686;23.362;2023-10-19T10:51:26;7.75;;;6.40;;
41687;SDS011;27371;42.686;23.362;2023-10-19T10:53:54;8.35;;;6.53;;
41687;SDS011;27371;42.686;23.362;2023-10-19T10:56:21;10.10;;;6.65;;
41687;SDS011;27371;42.686;23.362;2023-10-19T10:58:48;13.63;;;8.63;;
41687;SDS011;27371;42.686;23.362;2023-10-19T11:01:14;7.20;;;6.50;;
41687;SDS011;27371;42.686;23.362;2023-10-19T11:03:41;11.75;;;6.88;;
41687;SDS011;27371;42.686;23.362;2023-10-19T11:06:11;7.40;;;6.60;;
41687;SDS011;27371;42.686;23.362;2023-10-19T11:08:37;11.60;;;6.93;;
41687;SDS011;27371;42.686;23.362;2023-10-19T11:11:09;8.90;;;5.95;;
41687;SDS011;27371;42.686;23.362;2023-10-19T11:13:36;12.50;;;7.07;;
41687;SDS011;27371;42.686;23.362;2023-10-19T11:16:04;10.30;;;7.28;;
41687;SDS011;27371;42.686;23.362;2023-10-19T11:21:11;7.78;;;6.97;;
41687;SDS011;27371;42.686;23.362;2023-10-19T11:23:46;9.10;;;5.75;;
41687;SDS011;27371;42.686;23.362;2023-10-19T11:26:17;10.07;;;6.55;;
41687;SDS011;27371;42.686;23.362;2023-10-19T11:28:45;7.22;;;5.50;;
41687;SDS011;27371;42.686;23.362;2023-10-19T11:31:19;7.20;;;5.65;;
41687;SDS011;27371;42.686;23.362;2023-10-19T11:33:49;8.02;;;5.30;;
41687;SDS011;27371;42.686;23.362;2023-10-19T11:36:17;9.02;;;6.05;;
41687;SDS011;27371;42.686;23.362;2023-10-19T11:38:47;7.07;;;5.53;;
41687;SDS011;27371;42.686;23.362;2023-10-19T11:41:14;6.95;;;5.65;;
41687;SDS011;27371;42.686;23.362;2023-10-19T11:43:43;6.70;;;5.53;;
41687;SDS011;27371;42.686;23.362;2023-10-19T11:46:10;8.40;;;5.25;;
41687;SDS011;27371;42.686;23.362;2023-10-19T11:48:48;6.63;;;5.72;;
41687;SDS011;27371;42.686;23.362;2023-10-19T11:51:13;7.20;;;5.10;;
41687;SDS011;27371;42.686;23.362;2023-10-19T11:53:40;7.30;;;5.38;;
41687;SDS011;27371;42.686;23.362;2023-10-19T11:56:08;10.88;;;6.38;;
41687;SDS011;27371;42.686;23.362;2023-10-19T11:58:35;7.15;;;5.18;;
41687;SDS011;27371;42.686;23.362;2023-10-19T12:01:02;8.65;;;5.85;;
41687;SDS011;27371;42.686;23.362;2023-10-19T12:03:30;9.52;;;6.00;;
41687;SDS011;27371;42.686;23.362;2023-10-19T12:05:56;7.35;;;5.38;;
41687;SDS011;27371;42.686;23.362;2023-10-19T12:08:22;6.30;;;4.82;;
41687;SDS011;27371;42.686;23.362;2023-10-19T12:10:49;7.15;;;5.18;;
41687;SDS011;27371;42.686;23.362;2023-10-19T12:13:16;6.28;;;4.97;;
41687;SDS011;27371;42.686;23.362;2023-10-19T12:15:42;5.90;;;4.85;;
41687;SDS011;27371;42.686;23.362;2023-10-19T12:18:16;6.28;;;4.78;;
41687;SDS011;27371;42.686;23.362;2023-10-19T12:20:45;6.88;;;4.38;;
41687;SDS011;27371;42.686;23.362;2023-10-19T12:23:11;5.82;;;4.38;;
41687;SDS011;27371;42.686;23.362;2023-10-19T12:25:37;4.95;;;4.45;;
41687;SDS011;27371;42.686;23.362;2023-10-19T12:28:03;6.63;;;3.70;;
41687;SDS011;27371;42.686;23.362;2023-10-19T12:30:29;5.70;;;3.92;;
41687;SDS011;27371;42.686;23.362;2023-10-19T12:33:02;6.22;;;4.35;;
41687;SDS011;27371;42.686;23.362;2023-10-19T12:35:33;6.13;;;3.70;;
41687;SDS011;27371;42.686;23.362;2023-10-19T12:38:17;5.18;;;3.80;;
41687;SDS011;27371;42.686;23.362;2023-10-19T12:40:48;6.10;;;4.05;;
41687;SDS011;27371;42.686;23.362;2023-10-19T12:43:15;5.25;;;4.30;;
41687;SDS011;27371;42.686;23.362;2023-10-19T12:45:44;4.45;;;3.88;;
41687;SDS011;27371;42.686;23.362;2023-10-19T12:48:15;4.30;;;3.50;;
41687;SDS011;27371;42.686;23.362;2023-10-19T12:50:41;4.78;;;3.40;;
41687;SDS011;27371;42.686;23.362;2023-10-19T12:53:07;5.78;;;3.80;;
41687;SDS011;27371;42.686;23.362;2023-10-19T12:55:33;6.97;;;3.20;;
41687;SDS011;27371;42.686;23.362;2023-10-19T12:57:59;3.95;;;3.30;;
41687;SDS011;27371;42.686;23.362;2023-10-19T13:00:32;4.13;;;2.92;;
41687;SDS011;27371;42.686;23.362;2023-10-19T13:03:04;4.78;;;3.28;;
41687;SDS011;27371;42.686;23.362;2023-10-19T13:05:34;4.80;;;3.40;;
41687;SDS011;27371;42.686;23.362;2023-10-19T13:08:00;4.70;;;3.50;;
41687;SDS011;27371;42.686;23.362;2023-10-19T13:10:30;4.18;;;3.30;;
41687;SDS011;27371;42.686;23.362;2023-10-19T13:13:03;7.38;;;3.72;;
41687;SDS011;27371;42.686;23.362;2023-10-19T13:15:33;5.22;;;2.85;;
41687;SDS011;27371;42.686;23.362;2023-10-19T13:18:01;5.68;;;3.53;;
41687;SDS011;27371;42.686;23.362;2023-10-19T13:20:28;5.38;;;2.83;;
41687;SDS011;27371;42.686;23.362;2023-10-19T13:23:13;6.05;;;3.53;;
41687;SDS011;27371;42.686;23.362;2023-10-19T13:25:42;6.15;;;3.13;;
41687;SDS011;27371;42.686;23.362;2023-10-19T13:28:22;7.97;;;2.88;;
41687;SDS011;27371;42.686;23.362;2023-10-19T13:30:50;3.35;;;3.05;;
41687;SDS011;27371;42.686;23.362;2023-10-19T13:33:18;9.40;;;3.10;;
41687;SDS011;27371;42.686;23.362;2023-10-19T13:35:44;4.03;;;3.28;;
41687;SDS011;27371;42.686;23.362;2023-10-19T13:38:10;5.25;;;2.55;;
41687;SDS011;27371;42.686;23.362;2023-10-19T13:40:39;3.97;;;2.67;;
41687;SDS011;27371;42.686;23.362;2023-10-19T13:43:06;5.72;;;2.60;;
41687;SDS011;27371;42.686;23.362;2023-10-19T13:45:33;3.83;;;2.97;;
41687;SDS011;27371;42.686;23.362;2023-10-19T13:48:03;4.85;;;2.40;;
41687;SDS011;27371;42.686;23.362;2023-10-19T13:50:30;5.20;;;2.47;;
41687;SDS011;27371;42.686;23.362;2023-10-19T13:52:56;4.68;;;3.13;;
41687;SDS011;27371;42.686;23.362;2023-10-19T13:55:23;5.78;;;2.80;;
41687;SDS011;27371;42.686;23.362;2023-10-19T13:57:49;3.95;;;2.83;;
41687;SDS011;27371;42.686;23.362;2023-10-19T14:00:15;4.95;;;3.00;;
41687;SDS011;27371;42.686;23.362;2023-10-19T14:03:00;6.40;;;3.30;;
41687;SDS011;27371;42.686;23.362;2023-10-19T14:05:29;5.82;;;2.67;;
41687;SDS011;27371;42.686;23.362;2023-10-19T14:08:05;4.57;;;2.30;;
41687;SDS011;27371;42.686;23.362;2023-10-19T14:10:32;6.68;;;2.50;;
41687;SDS011;27371;42.686;23.362;2023-10-19T14:13:01;5.03;;;2.63;;
41687;SDS011;27371;42.686;23.362;2023-10-19T14:15:27;3.25;;;2.55;;
41687;SDS011;27371;42.686;23.362;2023-10-19T14:17:59;7.00;;;2.78;;
41687;SDS011;27371;42.686;23.362;2023-10-19T14:20:25;4.43;;;2.45;;
41687;SDS011;27371;42.686;23.362;2023-10-19T14:22:53;4.18;;;3.00;;
41687;SDS011;27371;42.686;23.362;2023-10-19T14:25:19;4.00;;;2.72;;
41687;SDS011;27371;42.686;23.362;2023-10-19T14:27:47;5.32;;;2.80;;
41687;SDS011;27371;42.686;23.362;2023-10-19T14:30:15;5.80;;;2.70;;
41687;SDS011;27371;42.686;23.362;2023-10-19T14:32:43;5.38;;;2.50;;
41687;SDS011;27371;42.686;23.362;2023-10-19T14:35:10;3.13;;;2.53;;
41687;SDS011;27371;42.686;23.362;2023-10-19T14:37:40;8.00;;;2.90;;
41687;SDS011;27371;42.686;23.362;2023-10-19T14:40:11;6.35;;;2.55;;
41687;SDS011;27371;42.686;23.362;2023-10-19T14:42:40;7.78;;;2.78;;
41687;SDS011;27371;42.686;23.362;2023-10-19T14:47:55;5.78;;;2.50;;
41687;SDS011;27371;42.686;23.362;2023-10-19T14:50:28;7.07;;;2.53;;
41687;SDS011;27371;42.686;23.362;2023-10-19T14:52:54;3.78;;;2.25;;
41687;SDS011;27371;42.686;23.362;2023-10-19T14:55:20;3.08;;;2.25;;
41687;SDS011;27371;42.686;23.362;2023-10-19T14:57:48;5.93;;;2.33;;
41687;SDS011;27371;42.686;23.362;2023-10-19T15:00:15;6.40;;;2.90;;
41687;SDS011;27371;42.686;23.362;2023-10-19T15:03:00;7.68;;;2.55;;
41687;SDS011;27371;42.686;23.362;2023-10-19T15:05:27;8.52;;;3.00;;